createdAt,value
2018-09-16T00:00:14.225Z,90.73
2018-09-16T00:01:14.227Z,90.88
2018-09-16T00:02:13.971Z,90.97
2018-09-16T00:03:14.222Z,90.59
2018-09-16T00:04:13.959Z,90.78
2018-09-16T00:05:13.956Z,90.78
2018-09-16T00:06:13.953Z,91.11
2018-09-16T00:07:14.199Z,90.97
2018-09-16T00:08:14.203Z,90.73
2018-09-16T00:09:13.962Z,91.02
2018-09-16T00:10:13.946Z,91.3
2018-09-16T00:11:14.194Z,91.11
2018-09-16T00:12:14.194Z,91.21
2018-09-16T00:13:14.209Z,90.92
2018-09-16T00:14:13.936Z,90.92
2018-09-16T00:15:14.219Z,90.73
2018-09-16T00:16:14.195Z,91.11
2018-09-16T00:17:14.190Z,91.11
2018-09-16T00:18:14.188Z,91.02
2018-09-16T00:19:13.920Z,91.4
2018-09-16T00:20:14.188Z,91.4
2018-09-16T00:21:14.179Z,91.78
2018-09-16T00:22:14.169Z,91.78
2018-09-16T00:23:13.917Z,91.88
2018-09-16T00:24:13.928Z,91.88
2018-09-16T00:25:14.169Z,91.88
2018-09-16T00:26:13.908Z,91.59
2018-09-16T00:27:13.916Z,91.97
2018-09-16T00:28:14.189Z,92.36
2018-09-16T00:29:14.157Z,92.45
2018-09-16T00:30:14.177Z,92.07
2018-09-16T00:31:13.896Z,92.36
2018-09-16T00:32:14.168Z,92.64
2018-09-16T00:33:19.106Z,92.83
2018-09-16T00:34:14.144Z,92.45
2018-09-16T00:35:14.142Z,92.83
2018-09-16T00:36:14.139Z,93.41
2018-09-16T00:37:14.134Z,93.02
2018-09-16T00:38:13.875Z,93.02
2018-09-16T00:39:14.135Z,93.02
2018-09-16T00:40:14.127Z,92.74
2018-09-16T00:41:14.136Z,93.12
2018-09-16T00:42:13.878Z,93.12
2018-09-16T00:43:14.134Z,93.5
2018-09-16T00:44:14.128Z,93.12
2018-09-16T00:45:14.117Z,93.02
2018-09-16T00:46:13.870Z,92.83
2018-09-16T00:47:14.117Z,93.12
2018-09-16T00:48:14.117Z,93.02
2018-09-16T00:49:13.868Z,93.6
2018-09-16T00:50:14.119Z,92.83
2018-09-16T00:51:14.119Z,92.64
2018-09-16T00:52:14.121Z,92.55
2018-09-16T00:53:13.842Z,92.64
2018-09-16T00:54:13.867Z,92.83
2018-09-16T00:55:13.836Z,93.12
2018-09-16T00:56:13.836Z,93.21
2018-09-16T00:57:14.089Z,93.5
2018-09-16T00:58:14.083Z,93.7
2018-09-16T00:59:13.830Z,93.98
2018-09-16T01:00:14.086Z,94.17
2018-09-16T01:01:13.833Z,95.12
2018-09-16T01:02:14.076Z,94.93
2018-09-16T01:03:14.079Z,95.03
2018-09-16T01:04:14.071Z,94.27
2018-09-16T01:05:14.066Z,94.36
2018-09-16T01:06:14.075Z,94.27
2018-09-16T01:07:13.807Z,94.17
2018-09-16T01:08:14.062Z,94.27
2018-09-16T01:09:13.809Z,94.65
2018-09-16T01:10:14.059Z,94.46
2018-09-16T01:11:14.054Z,94.17
2018-09-16T01:12:14.051Z,94.46
2018-09-16T01:13:13.786Z,94.46
2018-09-16T01:14:14.037Z,95.12
2018-09-16T01:15:14.046Z,94.36
2018-09-16T01:16:14.034Z,94.36
2018-09-16T01:17:14.033Z,94.98
2018-09-16T01:18:14.037Z,95.03
2018-09-16T01:19:14.024Z,94.07
2018-09-16T01:20:14.031Z,94.31
2018-09-16T01:21:13.792Z,94.41
2018-09-16T01:22:14.147Z,94.55
2018-09-16T01:23:14.015Z,94.98
2018-09-16T01:24:14.019Z,94.31
2018-09-16T01:25:14.011Z,94.41
2018-09-16T01:26:13.764Z,94.07
2018-09-16T01:27:14.007Z,94.74
2018-09-16T01:28:14.010Z,94.12
2018-09-16T01:29:14.005Z,94.41
2018-09-16T01:30:14.006Z,94.12
2018-09-16T01:31:13.996Z,95.08
2018-09-16T01:32:14.002Z,94.31
2018-09-16T01:33:13.988Z,94.51
2018-09-16T01:34:14.012Z,94.22
2018-09-16T01:35:13.988Z,94.31
2018-09-16T01:36:13.729Z,94.41
2018-09-16T01:37:13.983Z,94.51
2018-09-16T01:38:13.972Z,94.41
2018-09-16T01:39:13.972Z,94.7
2018-09-16T01:40:13.975Z,95.27
2018-09-16T01:41:13.996Z,94.89
2018-09-16T01:42:13.966Z,95.27
2018-09-16T01:43:13.971Z,94.98
2018-09-16T01:44:13.971Z,95.36
2018-09-16T01:45:13.958Z,96.13
2018-09-16T01:46:13.955Z,95.75
2018-09-16T01:47:13.964Z,95.46
2018-09-16T01:48:13.946Z,95.27
2018-09-16T01:49:13.942Z,95.08
2018-09-16T01:50:13.701Z,95.36
2018-09-16T01:51:13.939Z,95.65
2018-09-16T01:52:13.936Z,95.94
2018-09-16T01:53:13.933Z,95.94
2018-09-16T01:54:13.936Z,95.56
2018-09-16T01:55:13.927Z,95.46
2018-09-16T01:56:13.935Z,96.22
2018-09-16T01:57:13.933Z,96.13
2018-09-16T01:58:13.967Z,95.65
2018-09-16T01:59:13.913Z,95.94
2018-09-16T02:00:13.918Z,95.46
2018-09-16T02:01:13.925Z,95.08
2018-09-16T02:02:13.920Z,95.27
2018-09-16T02:03:13.904Z,95.17
2018-09-16T02:04:13.655Z,95.46
2018-09-16T02:05:13.644Z,96.03
2018-09-16T02:06:13.897Z,95.84
2018-09-16T02:07:13.893Z,96.03
2018-09-16T02:08:13.896Z,96.98
2018-09-16T02:09:13.894Z,96.7
2018-09-16T02:10:13.887Z,97.32
2018-09-16T02:11:13.881Z,97.08
2018-09-16T02:12:13.632Z,98.13
2018-09-16T02:13:13.877Z,97.75
2018-09-16T02:14:13.649Z,97.47
2018-09-16T02:15:13.876Z,96.61
2018-09-16T02:16:13.867Z,96.42
2018-09-16T02:17:13.869Z,96.7
2018-09-16T02:18:13.885Z,97.37
2018-09-16T02:19:13.854Z,96.98
2018-09-16T02:20:13.867Z,96.8
2018-09-16T02:21:13.845Z,96.61
2018-09-16T02:22:13.849Z,97.42
2018-09-16T02:23:13.845Z,97.37
2018-09-16T02:24:13.848Z,97.18
2018-09-16T02:25:13.849Z,98.03
2018-09-16T02:26:13.837Z,98.13
2018-09-16T02:27:13.833Z,98.23
2018-09-16T02:28:13.573Z,97.8
2018-09-16T02:29:13.829Z,98.42
2018-09-16T02:30:13.825Z,98.03
2018-09-16T02:31:13.831Z,98.27
2018-09-16T02:32:13.815Z,98.27
2018-09-16T02:33:13.556Z,97.89
2018-09-16T02:34:14.874Z,98.66
2018-09-16T02:35:13.552Z,98.08
2018-09-16T02:36:13.805Z,98.08
2018-09-16T02:37:13.569Z,98.47
2018-09-16T02:38:13.555Z,98.85
2018-09-16T02:39:13.565Z,98.66
2018-09-16T02:40:13.536Z,98.27
2018-09-16T02:41:13.534Z,98.56
2018-09-16T02:42:13.791Z,98.66
2018-09-16T02:43:13.574Z,98.8
2018-09-16T02:44:13.788Z,98.85
2018-09-16T02:45:13.802Z,98.47
2018-09-16T02:46:13.529Z,98.27
2018-09-16T02:47:13.521Z,97.8
2018-09-16T02:48:13.514Z,98.08
2018-09-16T02:49:13.778Z,97.99
2018-09-16T02:50:13.780Z,98.08
2018-09-16T02:51:13.784Z,97.99
2018-09-16T02:52:13.519Z,97.99
2018-09-16T02:53:13.761Z,98.18
2018-09-16T02:54:13.756Z,98.18
2018-09-16T02:55:13.501Z,98.56
2018-09-16T02:56:13.783Z,98.85
2018-09-16T02:57:13.490Z,98.94
2018-09-16T02:58:13.495Z,98.75
2018-09-16T02:59:13.740Z,98.75
2018-09-16T03:00:13.735Z,98.47
2018-09-16T03:01:13.477Z,98.85
2018-09-16T03:02:13.737Z,98.47
2018-09-16T03:03:13.465Z,99.04
2018-09-16T03:04:13.974Z,99.23
2018-09-16T03:05:13.458Z,99.32
2018-09-16T03:06:13.728Z,99.99
2018-09-16T03:07:13.475Z,99.99
2018-09-16T03:08:13.719Z,99.99
2018-09-16T03:09:13.703Z,99.8
2018-09-16T03:10:13.461Z,99.99
2018-09-16T03:11:13.695Z,99.99
2018-09-16T03:12:13.701Z,99.8
2018-09-16T03:13:13.433Z,99.99
2018-09-16T03:14:13.691Z,99.99
2018-09-16T03:15:13.694Z,99.99
2018-09-16T03:16:13.680Z,99.99
2018-09-16T03:17:13.431Z,99.99
2018-09-16T03:18:13.667Z,99.99
2018-09-16T03:19:13.673Z,99.99
2018-09-16T03:20:13.668Z,99.99
2018-09-16T03:21:13.682Z,99.99
2018-09-16T03:22:13.666Z,99.99
2018-09-16T03:23:13.407Z,99.99
2018-09-16T03:24:13.657Z,99.99
2018-09-16T03:25:13.661Z,99.99
2018-09-16T03:26:13.652Z,99.99
2018-09-16T03:27:13.644Z,99.99
2018-09-16T03:28:13.395Z,99.99
2018-09-16T03:29:13.635Z,99.99
2018-09-16T03:30:13.641Z,99.99
2018-09-16T03:31:13.374Z,99.99
2018-09-16T03:32:13.631Z,99.99
2018-09-16T03:33:13.627Z,99.99
2018-09-16T03:34:14.680Z,99.99
2018-09-16T03:35:13.622Z,99.99
2018-09-16T03:36:13.358Z,99.99
2018-09-16T03:37:13.361Z,99.99
2018-09-16T03:38:13.359Z,99.99
2018-09-16T03:39:13.630Z,99.99
2018-09-16T03:40:13.605Z,99.99
2018-09-16T03:41:13.598Z,99.99
2018-09-16T03:42:13.617Z,99.99
2018-09-16T03:43:13.336Z,99.99
2018-09-16T03:44:13.589Z,99.99
2018-09-16T03:45:13.595Z,99.99
2018-09-16T03:46:13.577Z,99.99
2018-09-16T03:47:13.326Z,99.99
2018-09-16T03:48:13.320Z,99.99
2018-09-16T03:49:13.582Z,99.99
2018-09-16T03:50:13.308Z,99.99
2018-09-16T03:51:13.310Z,99.99
2018-09-16T03:52:13.574Z,99.99
2018-09-16T03:53:13.310Z,99.99
2018-09-16T03:54:13.308Z,99.99
2018-09-16T03:55:13.320Z,99.99
2018-09-16T03:56:13.304Z,99.99
2018-09-16T03:57:13.543Z,99.99
2018-09-16T03:58:13.543Z,99.99
2018-09-16T03:59:13.284Z,99.99
2018-09-16T04:00:13.279Z,99.99
2018-09-16T04:01:13.539Z,99.99
2018-09-16T04:02:13.532Z,99.99
2018-09-16T04:03:13.526Z,99.99
2018-09-16T04:04:13.518Z,99.99
2018-09-16T04:05:13.381Z,99.99
2018-09-16T04:06:13.519Z,99.99
2018-09-16T04:07:13.521Z,99.99
2018-09-16T04:08:13.253Z,99.99
2018-09-16T04:09:13.504Z,99.99
2018-09-16T04:10:13.506Z,99.99
2018-09-16T04:11:13.499Z,99.99
2018-09-16T04:12:13.500Z,99.99
2018-09-16T04:13:13.492Z,99.99
2018-09-16T04:14:13.232Z,99.99
2018-09-16T04:15:13.487Z,99.99
2018-09-16T04:16:13.491Z,99.99
2018-09-16T04:17:13.221Z,99.99
2018-09-16T04:18:13.482Z,99.99
2018-09-16T04:19:13.484Z,99.99
2018-09-16T04:20:13.462Z,99.99
2018-09-16T04:21:13.720Z,99.99
2018-09-16T04:22:13.459Z,99.99
2018-09-16T04:23:13.198Z,99.99
2018-09-16T04:24:13.451Z,99.99
2018-09-16T04:25:13.495Z,99.99
2018-09-16T04:26:13.457Z,99.99
2018-09-16T04:27:13.192Z,99.99
2018-09-16T04:28:13.440Z,99.99
2018-09-16T04:29:13.442Z,99.99
2018-09-16T04:30:13.171Z,99.99
2018-09-16T04:31:13.170Z,99.99
2018-09-16T04:32:13.437Z,99.99
2018-09-16T04:33:13.163Z,99.99
2018-09-16T04:34:13.412Z,99.99
2018-09-16T04:35:13.411Z,99.99
2018-09-16T04:36:13.407Z,99.99
2018-09-16T04:37:13.147Z,99.99
2018-09-16T04:38:13.401Z,99.99
2018-09-16T04:39:13.141Z,99.99
2018-09-16T04:40:13.395Z,99.99
2018-09-16T04:41:13.450Z,99.99
2018-09-16T04:42:13.136Z,99.99
2018-09-16T04:43:13.388Z,99.99
2018-09-16T04:44:13.392Z,99.99
2018-09-16T04:45:13.388Z,99.99
2018-09-16T04:46:13.375Z,99.99
2018-09-16T04:47:13.366Z,99.99
2018-09-16T04:48:13.365Z,99.99
2018-09-16T04:49:13.363Z,99.99
2018-09-16T04:50:13.352Z,99.99
2018-09-16T04:51:13.349Z,99.99
2018-09-16T04:52:13.342Z,99.99
2018-09-16T04:53:13.086Z,99.99
2018-09-16T04:54:13.078Z,99.99
2018-09-16T04:55:13.333Z,99.99
2018-09-16T04:56:13.334Z,99.99
2018-09-16T04:57:13.323Z,99.99
2018-09-16T04:58:13.343Z,99.99
2018-09-16T04:59:13.319Z,99.99
2018-09-16T05:00:13.062Z,99.99
2018-09-16T05:01:13.593Z,99.99
2018-09-16T05:02:13.308Z,99.99
2018-09-16T05:03:13.308Z,99.99
2018-09-16T05:04:13.041Z,99.99
2018-09-16T05:05:15.044Z,99.99
2018-09-16T05:06:13.046Z,99.99
2018-09-16T05:07:13.298Z,99.99
2018-09-16T05:08:13.042Z,99.99
2018-09-16T05:09:13.036Z,99.99
2018-09-16T05:10:13.291Z,99.99
2018-09-16T05:11:13.294Z,99.99
2018-09-16T05:12:13.271Z,99.99
2018-09-16T05:13:13.272Z,99.99
2018-09-16T05:14:13.014Z,99.99
2018-09-16T05:15:13.329Z,99.99
2018-09-16T05:16:13.002Z,99.99
2018-09-16T05:17:13.251Z,99.99
2018-09-16T05:18:12.994Z,99.99
2018-09-16T05:19:12.991Z,99.99
2018-09-16T05:20:13.250Z,99.99
2018-09-16T05:21:13.239Z,99.99
2018-09-16T05:22:12.977Z,99.99
2018-09-16T05:23:12.982Z,99.99
2018-09-16T05:24:13.238Z,99.99
2018-09-16T05:25:12.979Z,99.99
2018-09-16T05:26:13.218Z,99.99
2018-09-16T05:27:12.962Z,99.99
2018-09-16T05:28:12.957Z,99.99
2018-09-16T05:29:13.224Z,99.99
2018-09-16T05:30:13.753Z,99.99
2018-09-16T05:31:13.225Z,99.99
2018-09-16T05:32:13.202Z,99.99
2018-09-16T05:33:13.196Z,99.99
2018-09-16T05:34:13.196Z,99.99
2018-09-16T05:35:12.937Z,99.99
2018-09-16T05:36:13.186Z,99.99
2018-09-16T05:37:13.185Z,99.99
2018-09-16T05:38:12.945Z,99.99
2018-09-16T05:39:13.177Z,99.99
2018-09-16T05:40:13.171Z,99.99
2018-09-16T05:41:13.173Z,99.99
2018-09-16T05:42:13.171Z,99.99
2018-09-16T05:43:13.174Z,99.99
2018-09-16T05:44:13.163Z,99.99
2018-09-16T05:45:12.900Z,99.99
2018-09-16T05:46:13.152Z,99.99
2018-09-16T05:47:13.145Z,99.99
2018-09-16T05:48:13.144Z,99.99
2018-09-16T05:49:13.142Z,99.99
2018-09-16T05:50:13.142Z,99.99
2018-09-16T05:51:13.131Z,99.99
2018-09-16T05:52:13.133Z,99.99
2018-09-16T05:53:13.429Z,99.99
2018-09-16T05:54:12.872Z,99.99
2018-09-16T05:55:12.940Z,99.99
2018-09-16T05:56:13.119Z,99.99
2018-09-16T05:57:13.122Z,99.99
2018-09-16T05:58:12.863Z,99.99
2018-09-16T05:59:13.293Z,99.99
2018-09-16T06:00:13.124Z,99.99
2018-09-16T06:01:12.848Z,99.99
2018-09-16T06:02:12.842Z,99.99
2018-09-16T06:03:13.104Z,99.99
2018-09-16T06:04:13.099Z,99.99
2018-09-16T06:05:13.167Z,99.99
2018-09-16T06:06:13.092Z,99.99
2018-09-16T06:07:12.827Z,99.99
2018-09-16T06:08:12.826Z,99.99
2018-09-16T06:09:12.829Z,99.99
2018-09-16T06:10:13.109Z,99.99
2018-09-16T06:11:12.818Z,99.99
2018-09-16T06:12:13.074Z,99.99
2018-09-16T06:13:12.811Z,99.99
2018-09-16T06:14:13.065Z,99.99
2018-09-16T06:15:13.241Z,99.18
2018-09-16T06:16:13.099Z,99.47
2018-09-16T06:17:12.813Z,98.99
2018-09-16T06:18:12.802Z,98.71
2018-09-16T06:19:13.051Z,98.23
2018-09-16T06:20:13.218Z,98.03
2018-09-16T06:21:13.046Z,98.8
2018-09-16T06:22:13.045Z,97.56
2018-09-16T06:23:13.052Z,98.03
2018-09-16T06:24:13.044Z,97.61
2018-09-16T06:25:12.876Z,97.42
2018-09-16T06:26:13.033Z,97.03
2018-09-16T06:27:13.030Z,95.89
2018-09-16T06:28:12.779Z,95.89
2018-09-16T06:29:13.034Z,96.17
2018-09-16T06:30:12.830Z,95.89
2018-09-16T06:31:13.031Z,95.22
2018-09-16T06:32:13.036Z,95.32
2018-09-16T06:33:13.025Z,94.93
2018-09-16T06:34:13.014Z,94.65
2018-09-16T06:35:13.053Z,94.31
2018-09-16T06:36:14.058Z,93.65
2018-09-16T06:37:13.017Z,94.46
2018-09-16T06:38:13.007Z,93.88
2018-09-16T06:39:13.025Z,93.93
2018-09-16T06:40:13.008Z,93.16
2018-09-16T06:41:13.119Z,93.93
2018-09-16T06:42:13.002Z,93.6
2018-09-16T06:43:13.001Z,92.54
2018-09-16T06:44:13.015Z,89.29
2018-09-16T06:45:12.997Z,84.26
2018-09-16T06:46:12.737Z,78.59
2018-09-16T06:47:12.991Z,74.44
2018-09-16T06:48:12.989Z,71.61
2018-09-16T06:49:12.739Z,69.81
2018-09-16T06:50:12.995Z,68.66
2018-09-16T06:51:12.750Z,68.89
2018-09-16T06:52:12.993Z,68.89
2018-09-16T06:53:12.999Z,68.7
2018-09-16T06:54:12.993Z,67.74
2018-09-16T06:55:13.043Z,67.07
2018-09-16T06:56:12.745Z,68.21
2018-09-16T06:57:12.745Z,68.21
2018-09-16T06:58:12.766Z,67.64
2018-09-16T06:59:13.016Z,67.64
2018-09-16T07:00:13.010Z,68.18
2018-09-16T07:01:13.003Z,69.34
2018-09-16T07:02:13.006Z,70.26
2018-09-16T07:03:13.008Z,70.64
2018-09-16T07:04:12.762Z,70.64
2018-09-16T07:05:13.118Z,70.36
2018-09-16T07:06:13.969Z,70.01
2018-09-16T07:07:12.773Z,67.25
2018-09-16T07:08:13.128Z,64.69
2018-09-16T07:09:12.764Z,62.9
2018-09-16T07:10:13.125Z,60.91
2018-09-16T07:11:12.770Z,59.59
2018-09-16T07:12:13.023Z,59.04
2018-09-16T07:13:12.772Z,56.66
2018-09-16T07:14:12.773Z,55.99
2018-09-16T07:15:13.049Z,54.38
2018-09-16T07:16:12.776Z,53.53
2018-09-16T07:17:12.778Z,52.69
2018-09-16T07:18:12.794Z,51.07
2018-09-16T07:19:13.042Z,50.52
2018-09-16T07:20:13.274Z,50.91
2018-09-16T07:21:13.063Z,50.04
2018-09-16T07:22:13.062Z,49.75
2018-09-16T07:23:12.805Z,48.52
2018-09-16T07:24:13.071Z,47.67
2018-09-16T07:25:13.076Z,48.06
2018-09-16T07:26:13.072Z,47.67
2018-09-16T07:27:13.132Z,47.77
2018-09-16T07:28:12.829Z,46.51
2018-09-16T07:29:12.827Z,46.8
2018-09-16T07:30:13.087Z,46.8
2018-09-16T07:31:13.098Z,47.67
2018-09-16T07:32:13.103Z,47.19
2018-09-16T07:33:12.853Z,46.7
2018-09-16T07:34:13.196Z,45.57
2018-09-16T07:35:12.863Z,45.57
2018-09-16T07:36:12.865Z,44.98
2018-09-16T07:37:13.120Z,44.5
2018-09-16T07:38:13.132Z,44.23
2018-09-16T07:39:12.880Z,44.6
2018-09-16T07:40:12.892Z,44.89
2018-09-16T07:41:12.895Z,44.79
2018-09-16T07:42:13.154Z,44.57
2018-09-16T07:43:13.166Z,45.08
2018-09-16T07:44:12.908Z,44.21
2018-09-16T07:45:13.167Z,43.82
2018-09-16T07:46:12.918Z,43.55
2018-09-16T07:47:13.225Z,43.75
2018-09-16T07:48:13.186Z,43.07
2018-09-16T07:49:13.194Z,42.78
2018-09-16T07:50:13.203Z,42.97
2018-09-16T07:51:12.964Z,42.59
2018-09-16T07:52:13.203Z,43.05
2018-09-16T07:53:13.368Z,43.17
2018-09-16T07:54:13.222Z,42.1
2018-09-16T07:55:13.276Z,42.2
2018-09-16T07:56:13.237Z,42.4
2018-09-16T07:57:13.236Z,42.71
2018-09-16T07:58:13.244Z,41.55
2018-09-16T07:59:13.244Z,41.64
2018-09-16T08:00:13.252Z,41.64
2018-09-16T08:01:13.254Z,41.74
2018-09-16T08:02:13.011Z,41.45
2018-09-16T08:03:13.013Z,41.27
2018-09-16T08:04:13.281Z,39.92
2018-09-16T08:05:13.314Z,41
2018-09-16T08:06:13.591Z,41.27
2018-09-16T08:07:13.317Z,42.03
2018-09-16T08:08:13.304Z,43.07
2018-09-16T08:09:13.305Z,43.48
2018-09-16T08:10:13.389Z,43.75
2018-09-16T08:11:13.057Z,43.63
2018-09-16T08:12:13.326Z,44.19
2018-09-16T08:13:13.323Z,44.77
2018-09-16T08:14:13.325Z,45.14
2018-09-16T08:15:13.074Z,45.62
2018-09-16T08:16:13.079Z,45.72
2018-09-16T08:17:13.087Z,45.23
2018-09-16T08:18:13.360Z,46.47
2018-09-16T08:19:13.352Z,47.91
2018-09-16T08:20:13.357Z,49.15
2018-09-16T08:21:13.481Z,50.45
2018-09-16T08:22:13.128Z,52.16
2018-09-16T08:23:13.380Z,55.02
2018-09-16T08:24:13.381Z,56.51
2018-09-16T08:25:13.394Z,57.64
2018-09-16T08:26:13.133Z,59.63
2018-09-16T08:27:13.397Z,59.34
2018-09-16T08:28:13.143Z,60.46
2018-09-16T08:29:13.405Z,60.27
2018-09-16T08:30:13.146Z,60.46
2018-09-16T08:31:13.411Z,62.26
2018-09-16T08:32:13.414Z,61.78
2018-09-16T08:33:13.414Z,62.74
2018-09-16T08:34:13.451Z,60.72
2018-09-16T08:35:13.418Z,60.63
2018-09-16T08:36:13.421Z,60.63
2018-09-16T08:37:13.418Z,60.72
2018-09-16T08:38:13.430Z,61.4
2018-09-16T08:39:13.443Z,61.58
2018-09-16T08:40:13.172Z,61.78
2018-09-16T08:41:13.441Z,61.78
2018-09-16T08:42:13.440Z,62.07
2018-09-16T08:43:13.441Z,62.55
2018-09-16T08:44:13.181Z,60.72
2018-09-16T08:45:13.187Z,61.11
2018-09-16T08:46:13.449Z,60.53
2018-09-16T08:47:13.449Z,62
2018-09-16T08:48:13.191Z,60.91
2018-09-16T08:49:13.191Z,61.81
2018-09-16T08:50:13.473Z,60.66
2018-09-16T08:51:13.450Z,59.6
2018-09-16T08:52:13.590Z,59.99
2018-09-16T08:53:13.452Z,59.5
2018-09-16T08:54:13.455Z,59.41
2018-09-16T08:55:13.198Z,60.75
2018-09-16T08:56:13.200Z,60.21
2018-09-16T08:57:13.468Z,59.63
2018-09-16T08:58:13.247Z,59.05
2018-09-16T08:59:13.214Z,58.28
2018-09-16T09:00:13.209Z,58.18
2018-09-16T09:01:13.473Z,58.09
2018-09-16T09:02:13.214Z,57.51
2018-09-16T09:03:13.478Z,58.02
2018-09-16T09:04:13.521Z,57.54
2018-09-16T09:05:13.474Z,58.02
2018-09-16T09:06:13.243Z,57.25
2018-09-16T09:07:13.476Z,57.45
2018-09-16T09:08:13.477Z,57.73
2018-09-16T09:09:13.481Z,58.22
2018-09-16T09:10:13.224Z,56.67
2018-09-16T09:11:13.480Z,55.43
2018-09-16T09:12:13.511Z,54.56
2018-09-16T09:13:13.514Z,54.58
2018-09-16T09:14:13.543Z,55.07
2018-09-16T09:15:13.488Z,54.1
2018-09-16T09:16:13.489Z,53.45
2018-09-16T09:17:13.236Z,53.27
2018-09-16T09:18:13.499Z,52.49
2018-09-16T09:19:13.517Z,51.82
2018-09-16T09:20:13.519Z,50.69
2018-09-16T09:21:13.252Z,50.78
2018-09-16T09:22:13.249Z,50.21
2018-09-16T09:23:13.594Z,49.63
2018-09-16T09:24:13.532Z,49.91
2018-09-16T09:25:13.253Z,49.53
2018-09-16T09:26:13.527Z,50.59
2018-09-16T09:27:13.255Z,49.73
2018-09-16T09:28:13.519Z,50.21
2018-09-16T09:29:13.666Z,50.21
2018-09-16T09:30:13.529Z,49.91
2018-09-16T09:31:13.266Z,49.75
2018-09-16T09:32:13.266Z,49.84
2018-09-16T09:33:13.290Z,50.42
2018-09-16T09:34:13.313Z,49.65
2018-09-16T09:35:13.539Z,50.13
2018-09-16T09:36:13.538Z,49.65
2018-09-16T09:37:14.485Z,50.13
2018-09-16T09:38:13.539Z,50.52
2018-09-16T09:39:13.551Z,49.75
2018-09-16T09:40:13.471Z,49.94
2018-09-16T09:41:13.300Z,49.65
2018-09-16T09:42:13.300Z,48.49
2018-09-16T09:43:13.550Z,49.37
2018-09-16T09:44:13.300Z,49.94
2018-09-16T09:45:13.585Z,49.75
2018-09-16T09:46:13.552Z,49.48
2018-09-16T09:47:13.559Z,49.19
2018-09-16T09:48:13.560Z,49
2018-09-16T09:49:13.325Z,48.71
2018-09-16T09:50:13.562Z,48.71
2018-09-16T09:51:13.581Z,48.25
2018-09-16T09:52:16.024Z,48.25
2018-09-16T09:53:13.589Z,49.32
2018-09-16T09:54:13.589Z,48.06
2018-09-16T09:55:13.582Z,49.02
2018-09-16T09:56:13.580Z,48.74
2018-09-16T09:57:13.593Z,48.44
2018-09-16T09:58:13.593Z,48.35
2018-09-16T09:59:13.864Z,48.25
2018-09-16T10:00:13.345Z,48.44
2018-09-16T10:01:13.348Z,49.02
2018-09-16T10:02:13.340Z,49.34
2018-09-16T10:03:13.347Z,49.05
2018-09-16T10:04:13.346Z,48.57
2018-09-16T10:05:13.352Z,49.41
2018-09-16T10:06:13.744Z,49.34
2018-09-16T10:07:13.365Z,49.53
2018-09-16T10:08:13.357Z,48.95
2018-09-16T10:09:13.379Z,48.86
2018-09-16T10:10:13.643Z,49.24
2018-09-16T10:11:13.431Z,49.34
2018-09-16T10:12:13.378Z,49.15
2018-09-16T10:13:13.369Z,49.15
2018-09-16T10:14:13.641Z,49.05
2018-09-16T10:15:13.644Z,49.73
2018-09-16T10:16:13.642Z,49.24
2018-09-16T10:17:13.431Z,49.73
2018-09-16T10:18:13.681Z,49.82
2018-09-16T10:19:13.644Z,50.4
2018-09-16T10:20:13.380Z,50.01
2018-09-16T10:21:13.641Z,50.4
2018-09-16T10:22:13.397Z,50.69
2018-09-16T10:23:13.405Z,50.59
2018-09-16T10:24:13.406Z,50.69
2018-09-16T10:25:13.664Z,51.17
2018-09-16T10:26:13.408Z,50.4
2018-09-16T10:27:13.672Z,50.5
2018-09-16T10:28:13.671Z,50.31
2018-09-16T10:29:13.431Z,51.56
2018-09-16T10:30:13.712Z,51.17
2018-09-16T10:31:13.443Z,50.59
2018-09-16T10:32:13.434Z,50.79
2018-09-16T10:33:13.696Z,50.71
2018-09-16T10:34:13.435Z,50.62
2018-09-16T10:35:13.700Z,50.71
2018-09-16T10:36:13.714Z,50.71
2018-09-16T10:37:13.698Z,50.81
2018-09-16T10:38:13.703Z,50.62
2018-09-16T10:39:13.446Z,49.87
2018-09-16T10:40:13.452Z,50.35
2018-09-16T10:41:13.720Z,50.23
2018-09-16T10:42:13.465Z,50.91
2018-09-16T10:43:13.461Z,51.1
2018-09-16T10:44:13.726Z,51.01
2018-09-16T10:45:13.731Z,51.2
2018-09-16T10:46:13.469Z,51.29
2018-09-16T10:47:13.481Z,50.52
2018-09-16T10:48:13.805Z,50.81
2018-09-16T10:49:13.474Z,52.36
2018-09-16T10:50:13.735Z,51.97
2018-09-16T10:51:13.747Z,51.2
2018-09-16T10:52:13.756Z,50.62
2018-09-16T10:53:13.757Z,50.16
2018-09-16T10:54:13.749Z,49.97
2018-09-16T10:55:13.510Z,49.29
2018-09-16T10:56:13.770Z,48.61
2018-09-16T10:57:13.756Z,48.61
2018-09-16T10:58:13.756Z,49.1
2018-09-16T10:59:13.511Z,50.74
2018-09-16T11:00:13.505Z,48.71
2018-09-16T11:01:13.510Z,48.42
2018-09-16T11:02:13.768Z,49.19
2018-09-16T11:03:13.772Z,49.77
2018-09-16T11:04:13.524Z,51.42
2018-09-16T11:05:13.775Z,49.1
2018-09-16T11:06:13.794Z,50.07
2018-09-16T11:07:13.800Z,49.97
2018-09-16T11:08:14.071Z,50.74
2018-09-16T11:09:13.800Z,51.51
2018-09-16T11:10:13.792Z,49.39
2018-09-16T11:11:13.796Z,49.39
2018-09-16T11:12:13.808Z,48.83
2018-09-16T11:13:13.806Z,49.12
2018-09-16T11:14:13.805Z,49.41
2018-09-16T11:15:13.549Z,48.18
2018-09-16T11:16:13.553Z,50.57
2018-09-16T11:17:13.822Z,49.82
2018-09-16T11:18:13.573Z,48.66
2018-09-16T11:19:13.831Z,48.08
2018-09-16T11:20:13.836Z,47.11
2018-09-16T11:21:13.831Z,47.6
2018-09-16T11:22:14.091Z,48.27
2018-09-16T11:23:13.843Z,50.79
2018-09-16T11:24:13.888Z,48.95
2018-09-16T11:25:13.849Z,47.89
2018-09-16T11:26:13.856Z,47.02
2018-09-16T11:27:13.851Z,47.11
2018-09-16T11:28:13.605Z,46.73
2018-09-16T11:29:13.865Z,47.6
2018-09-16T11:30:14.160Z,47.99
2018-09-16T11:31:13.880Z,47.21
2018-09-16T11:32:13.622Z,47.21
2018-09-16T11:33:13.874Z,47.21
2018-09-16T11:34:13.877Z,46.92
2018-09-16T11:35:13.620Z,45.86
2018-09-16T11:36:13.900Z,46.25
2018-09-16T11:37:13.630Z,46.25
2018-09-16T11:38:14.197Z,45.66
2018-09-16T11:39:13.893Z,45.68
2018-09-16T11:40:13.899Z,46.56
2018-09-16T11:41:13.902Z,45.98
2018-09-16T11:42:13.906Z,45.68
2018-09-16T11:43:13.656Z,45.4
2018-09-16T11:44:13.909Z,45.3
2018-09-16T11:45:13.923Z,45.49
2018-09-16T11:46:13.927Z,45.3
2018-09-16T11:47:13.919Z,45.2
2018-09-16T11:48:13.936Z,45.1
2018-09-16T11:49:13.931Z,45.3
2018-09-16T11:50:13.935Z,45.88
2018-09-16T11:51:13.945Z,45.76
2018-09-16T11:52:13.713Z,44.72
2018-09-16T11:53:13.947Z,44.72
2018-09-16T11:54:13.953Z,45.1
2018-09-16T11:55:13.963Z,45.1
2018-09-16T11:56:13.953Z,46.94
2018-09-16T11:57:13.706Z,46.56
2018-09-16T11:58:13.961Z,45.88
2018-09-16T11:59:13.718Z,49.85
2018-09-16T12:00:13.967Z,46.94
2018-09-16T12:01:13.725Z,45.78
2018-09-16T12:02:13.766Z,45.01
2018-09-16T12:03:13.977Z,45.59
2018-09-16T12:04:13.985Z,45.3
2018-09-16T12:05:14.077Z,44.53
2018-09-16T12:06:13.988Z,45.98
2018-09-16T12:07:14.015Z,45.68
2018-09-16T12:08:13.993Z,45.22
2018-09-16T12:09:14.034Z,44.54
2018-09-16T12:10:14.021Z,43.77
2018-09-16T12:11:14.034Z,43.87
2018-09-16T12:12:13.773Z,43.87
2018-09-16T12:13:14.083Z,43.48
2018-09-16T12:14:13.793Z,43.29
2018-09-16T12:15:14.025Z,42.22
2018-09-16T12:16:13.912Z,42.22
2018-09-16T12:17:14.043Z,42.22
2018-09-16T12:18:13.781Z,41.83
2018-09-16T12:19:13.786Z,41.74
2018-09-16T12:20:13.967Z,41.93
2018-09-16T12:21:14.068Z,41.35
2018-09-16T12:22:14.066Z,41.93
2018-09-16T12:23:13.801Z,45.51
2018-09-16T12:24:13.807Z,43.68
2018-09-16T12:25:13.807Z,41.83
2018-09-16T12:26:14.080Z,41.83
2018-09-16T12:27:14.080Z,41.83
2018-09-16T12:28:14.085Z,41.83
2018-09-16T12:29:14.098Z,41.64
2018-09-16T12:30:13.828Z,41.35
2018-09-16T12:31:14.091Z,41.86
2018-09-16T12:32:13.831Z,40.01
2018-09-16T12:33:13.837Z,39.92
2018-09-16T12:34:14.098Z,39.82
2018-09-16T12:35:14.120Z,40.21
2018-09-16T12:36:13.853Z,41.08
2018-09-16T12:37:13.863Z,41.27
2018-09-16T12:38:14.281Z,40.99
2018-09-16T12:39:13.871Z,41.27
2018-09-16T12:40:13.868Z,40.69
2018-09-16T12:41:14.130Z,39.53
2018-09-16T12:42:14.153Z,39.43
2018-09-16T12:43:14.130Z,40.21
2018-09-16T12:44:14.137Z,40.4
2018-09-16T12:45:14.345Z,40.89
2018-09-16T12:46:14.144Z,40.96
2018-09-16T12:47:14.158Z,40.86
2018-09-16T12:48:14.207Z,40.96
2018-09-16T12:49:14.237Z,40.79
2018-09-16T12:50:13.922Z,40.5
2018-09-16T12:51:14.177Z,40.5
2018-09-16T12:52:14.014Z,40.31
2018-09-16T12:53:14.179Z,39.92
2018-09-16T12:54:14.182Z,41.86